createdAt,value
2022-08-08T00:00:52.463Z,934.95
2022-08-08T00:00:56.388Z,934.94
2022-08-08T00:02:03.200Z,934.94
2022-08-08T00:02:37.499Z,934.94
2022-08-08T00:03:37.487Z,934.92
2022-08-08T00:04:37.551Z,934.84
2022-08-08T00:06:01.061Z,934.84
2022-08-08T00:06:37.455Z,934.79
2022-08-08T00:07:37.982Z,934.76
2022-08-08T00:08:37.437Z,934.76
2022-08-08T00:09:37.426Z,934.77
2022-08-08T00:10:37.516Z,934.79
2022-08-08T00:12:03.070Z,934.82
2022-08-08T00:12:37.395Z,934.85
2022-08-08T00:14:15.310Z,934.87
2022-08-08T00:14:48.674Z,934.92
2022-08-08T00:15:57.408Z,934.87
2022-08-08T00:16:37.543Z,934.82
2022-08-08T00:18:02.578Z,934.84
2022-08-08T00:18:37.324Z,934.82
2022-08-08T00:19:37.311Z,934.83
2022-08-08T00:20:37.412Z,934.82
2022-08-08T00:21:39.678Z,934.84
2022-08-08T00:22:39.608Z,934.81
2022-08-08T00:23:43.035Z,934.83
2022-08-08T00:24:37.261Z,934.83
2022-08-08T00:25:45.017Z,934.87
2022-08-08T00:26:37.234Z,934.88
2022-08-08T00:27:37.371Z,934.90
2022-08-08T00:28:37.212Z,934.93
2022-08-08T00:29:45.593Z,934.93
2022-08-08T00:30:37.194Z,934.91
2022-08-08T00:32:29.033Z,934.91
2022-08-08T00:32:37.168Z,934.88
2022-08-08T00:34:17.253Z,934.85
2022-08-08T00:34:37.147Z,934.83
2022-08-08T00:35:37.516Z,934.81
2022-08-08T00:36:37.127Z,934.76
2022-08-08T00:37:47.256Z,934.76
2022-08-08T00:38:51.798Z,934.75
2022-08-08T00:41:10.632Z,934.70
2022-08-08T00:41:12.736Z,934.73
2022-08-08T00:41:54.975Z,934.66
2022-08-08T00:42:37.177Z,934.67
2022-08-08T00:43:41.018Z,934.66
2022-08-08T00:44:37.138Z,934.65
2022-08-08T00:45:37.025Z,934.62
2022-08-08T00:46:55.957Z,934.65
2022-08-08T00:48:02.058Z,934.69
2022-08-08T00:48:36.990Z,934.67
2022-08-08T00:49:37.484Z,934.64
2022-08-08T00:50:40.962Z,934.60
2022-08-08T00:51:38.842Z,934.55
2022-08-08T00:52:40.211Z,934.51
2022-08-08T00:53:43.500Z,934.52
2022-08-08T00:54:36.924Z,934.49
2022-08-08T00:55:52.943Z,934.49
2022-08-08T00:56:36.898Z,934.52
2022-08-08T00:57:36.891Z,934.53
2022-08-08T00:58:36.879Z,934.60
2022-08-08T00:59:44.087Z,934.58
2022-08-08T01:00:37.890Z,934.59
2022-08-08T01:01:38.151Z,934.63
2022-08-08T01:03:58.961Z,934.68
2022-08-08T01:04:00.713Z,934.68
2022-08-08T01:04:36.813Z,934.64
2022-08-08T01:05:42.141Z,934.58
2022-08-08T01:06:36.790Z,934.54
2022-08-08T01:07:55.791Z,934.53
2022-08-08T01:08:36.767Z,934.55
2022-08-08T01:09:41.423Z,934.57
2022-08-08T01:10:36.857Z,934.59
2022-08-08T01:11:37.774Z,934.62
2022-08-08T01:12:36.724Z,934.65
2022-08-08T01:13:43.999Z,934.70
2022-08-08T01:14:53.597Z,934.70
2022-08-08T01:15:43.547Z,934.71
2022-08-08T01:16:37.297Z,934.68
2022-08-08T01:17:53.318Z,934.69
2022-08-08T01:18:53.396Z,934.71
2022-08-08T01:19:52.481Z,934.75
2022-08-08T01:20:36.678Z,934.73
2022-08-08T01:22:12.261Z,934.76
2022-08-08T01:22:36.872Z,934.77
2022-08-08T01:24:02.946Z,934.78
2022-08-08T01:24:36.580Z,934.80
2022-08-08T01:25:40.994Z,934.82
2022-08-08T01:26:36.708Z,934.82
2022-08-08T01:27:44.594Z,934.82
2022-08-08T01:28:36.894Z,934.82
2022-08-08T01:29:59.924Z,934.84
2022-08-08T01:30:36.511Z,934.80
2022-08-08T01:32:13.091Z,934.82
2022-08-08T01:32:36.592Z,934.85
2022-08-08T01:33:53.858Z,934.81
2022-08-08T01:34:36.472Z,934.80
2022-08-08T01:35:38.400Z,934.76
2022-08-08T01:36:36.447Z,934.73
2022-08-08T01:37:58.318Z,934.70
2022-08-08T01:38:36.421Z,934.70
2022-08-08T01:39:42.038Z,934.65
2022-08-08T01:40:36.402Z,934.64
2022-08-08T01:41:38.214Z,934.61
2022-08-08T01:42:37.601Z,934.60
2022-08-08T01:43:38.609Z,934.64
2022-08-08T01:44:36.359Z,934.60
2022-08-08T01:45:37.514Z,934.60
2022-08-08T01:46:36.334Z,934.54
2022-08-08T01:48:16.052Z,934.58
2022-08-08T01:48:36.312Z,934.58
2022-08-08T01:49:37.726Z,934.58
2022-08-08T01:50:38.028Z,934.64
2022-08-08T01:52:04.642Z,934.67
2022-08-08T01:54:04.126Z,934.67
2022-08-08T01:55:16.810Z,934.71
2022-08-08T01:55:27.013Z,934.72
2022-08-08T01:56:29.380Z,934.74
2022-08-08T01:56:37.206Z,934.69
2022-08-08T01:58:03.982Z,934.68
2022-08-08T01:58:39.639Z,934.66
2022-08-08T01:59:38.241Z,934.66
2022-08-08T02:00:36.235Z,934.66
2022-08-08T02:02:00.450Z,934.64
2022-08-08T02:02:41.477Z,934.63
2022-08-08T02:03:49.460Z,934.62
2022-08-08T02:04:36.124Z,934.61
2022-08-08T02:05:56.320Z,934.65
2022-08-08T02:06:36.871Z,934.66
2022-08-08T02:07:41.635Z,934.69
2022-08-08T02:08:36.083Z,934.64
2022-08-08T02:10:01.327Z,934.68
2022-08-08T02:10:37.109Z,934.64
2022-08-08T02:11:52.781Z,934.63
2022-08-08T02:12:36.040Z,934.58
2022-08-08T02:13:54.891Z,934.59
2022-08-08T02:14:55.240Z,934.55
2022-08-08T02:15:38.801Z,934.51
2022-08-08T02:16:35.988Z,934.55
2022-08-08T02:17:42.567Z,934.56
2022-08-08T02:18:35.965Z,934.54
2022-08-08T02:19:57.978Z,934.54
2022-08-08T02:21:01.782Z,934.51
2022-08-08T02:21:35.928Z,934.47
2022-08-08T02:22:52.590Z,934.45
2022-08-08T02:23:35.912Z,934.43
2022-08-08T02:24:35.897Z,934.38
2022-08-08T02:25:46.821Z,934.33
2022-08-08T02:26:35.870Z,934.32
2022-08-08T02:27:38.878Z,934.29
2022-08-08T02:28:35.851Z,934.32
2022-08-08T02:29:46.828Z,934.32
2022-08-08T02:30:35.824Z,934.31
2022-08-08T02:31:59.506Z,934.32
2022-08-08T02:32:36.709Z,934.38
2022-08-08T02:34:00.151Z,934.35
2022-08-08T02:34:35.781Z,934.42
2022-08-08T02:36:03.684Z,934.41
2022-08-08T02:36:35.762Z,934.40
2022-08-08T02:37:52.773Z,934.44
2022-08-08T02:38:35.934Z,934.43
2022-08-08T02:39:40.469Z,934.44
2022-08-08T02:40:35.771Z,934.42
2022-08-08T02:41:58.403Z,934.36
2022-08-08T02:42:38.464Z,934.37
2022-08-08T02:44:38.105Z,934.35
2022-08-08T02:44:57.399Z,934.37
2022-08-08T02:45:51.240Z,934.39
2022-08-08T02:46:35.645Z,934.36
2022-08-08T02:47:35.627Z,934.33
2022-08-08T02:48:35.620Z,934.33
2022-08-08T02:49:48.120Z,934.19
2022-08-08T02:50:35.649Z,934.15
2022-08-08T02:51:47.615Z,934.05
2022-08-08T02:52:38.620Z,934.02
2022-08-08T02:53:35.557Z,934.01
2022-08-08T02:54:35.549Z,934.16
2022-08-08T02:55:37.470Z,934.27
2022-08-08T02:56:35.524Z,934.34
2022-08-08T02:57:40.678Z,934.39
2022-08-08T02:58:35.499Z,934.43
2022-08-08T02:59:37.027Z,934.46
2022-08-08T03:00:35.673Z,934.41
2022-08-08T03:01:39.866Z,934.36
2022-08-08T03:02:35.610Z,934.36
2022-08-08T03:05:00.209Z,934.35
2022-08-08T03:05:02.825Z,934.28
2022-08-08T03:05:46.253Z,934.26
2022-08-08T03:06:35.855Z,934.27
2022-08-08T03:07:41.830Z,934.21
2022-08-08T03:08:35.375Z,934.20
2022-08-08T03:09:35.363Z,934.20
2022-08-08T03:10:37.790Z,934.18
2022-08-08T03:12:01.983Z,934.22
2022-08-08T03:12:36.699Z,934.23
2022-08-08T03:15:57.618Z,934.22
2022-08-08T03:15:59.347Z,934.24
2022-08-08T03:16:02.084Z,934.21
2022-08-08T03:16:37.142Z,934.21
2022-08-08T03:17:39.213Z,934.18
2022-08-08T03:18:35.457Z,934.21
2022-08-08T03:19:35.247Z,934.20
2022-08-08T03:20:35.235Z,934.18
2022-08-08T03:21:40.784Z,934.15
2022-08-08T03:22:38.033Z,934.12
2022-08-08T03:23:54.706Z,934.03
2022-08-08T03:24:35.339Z,934.06
2022-08-08T03:25:36.091Z,934.02
2022-08-08T03:26:42.201Z,934.02
2022-08-08T03:27:35.917Z,934.00
2022-08-08T03:28:35.136Z,933.96
2022-08-08T03:29:54.715Z,934.00
2022-08-08T03:30:35.381Z,934.02
2022-08-08T03:31:38.039Z,934.07
2022-08-08T03:32:35.097Z,934.07
2022-08-08T03:33:58.617Z,934.09
2022-08-08T03:34:35.318Z,934.11
2022-08-08T03:35:35.058Z,934.10
2022-08-08T03:36:35.046Z,934.09
2022-08-08T03:38:54.352Z,934.09
2022-08-08T03:38:55.018Z,934.11
2022-08-08T03:39:46.004Z,934.12
2022-08-08T03:40:35.052Z,934.11
2022-08-08T03:42:27.761Z,934.10
2022-08-08T03:42:34.978Z,934.08
2022-08-08T03:43:38.406Z,934.14
2022-08-08T03:44:35.205Z,934.12
2022-08-08T03:46:07.358Z,934.15
2022-08-08T03:46:34.931Z,934.18
2022-08-08T03:47:45.148Z,934.21
2022-08-08T03:49:09.137Z,934.18
2022-08-08T03:49:57.220Z,934.22
2022-08-08T03:50:34.889Z,934.19
2022-08-08T03:51:50.389Z,934.16
2022-08-08T03:52:35.184Z,934.17
2022-08-08T03:53:42.666Z,934.17
2022-08-08T03:54:40.595Z,934.17
2022-08-08T03:55:55.972Z,934.16
2022-08-08T03:56:34.814Z,934.22
2022-08-08T03:58:34.446Z,934.24
2022-08-08T03:58:38.149Z,934.25
2022-08-08T03:59:35.224Z,934.23
2022-08-08T04:00:34.771Z,934.22
2022-08-08T04:02:12.826Z,934.22
2022-08-08T04:02:47.714Z,934.19
2022-08-08T04:03:58.897Z,934.19
2022-08-08T04:04:34.960Z,934.18
2022-08-08T04:05:35.114Z,934.16
2022-08-08T04:06:34.696Z,934.17
2022-08-08T04:07:34.684Z,934.22
2022-08-08T04:08:34.818Z,934.22
2022-08-08T04:09:58.864Z,934.22
2022-08-08T04:10:34.648Z,934.22
2022-08-08T04:11:57.911Z,934.21
2022-08-08T04:12:34.626Z,934.22
2022-08-08T04:14:04.298Z,934.26
2022-08-08T04:14:36.142Z,934.20
2022-08-08T04:15:38.831Z,934.20
2022-08-08T04:16:40.475Z,934.24
2022-08-08T04:17:46.776Z,934.25
2022-08-08T04:18:41.788Z,934.22
2022-08-08T04:19:36.984Z,934.18
2022-08-08T04:20:34.937Z,934.20
2022-08-08T04:21:41.176Z,934.16
2022-08-08T04:22:34.894Z,934.08
2022-08-08T04:24:05.547Z,934.02
2022-08-08T04:24:34.484Z,934.02
2022-08-08T04:25:36.658Z,934.03
2022-08-08T04:26:39.991Z,934.02
2022-08-08T04:28:02.644Z,934.15
2022-08-08T04:28:37.239Z,934.17
2022-08-08T04:29:37.564Z,934.20
2022-08-08T04:30:39.815Z,934.15
2022-08-08T04:31:59.334Z,934.17
2022-08-08T04:32:34.496Z,934.16
2022-08-08T04:33:38.635Z,934.18
2022-08-08T04:34:55.387Z,934.15
2022-08-08T04:35:39.499Z,934.12
2022-08-08T04:36:34.341Z,934.14
2022-08-08T04:37:34.334Z,934.11
2022-08-08T04:38:34.477Z,934.15
2022-08-08T04:40:04.597Z,934.17
2022-08-08T04:40:34.759Z,934.18
2022-08-08T04:41:35.851Z,934.16
2022-08-08T04:42:34.273Z,934.18
2022-08-08T04:43:45.381Z,934.23
2022-08-08T04:44:34.551Z,934.22
2022-08-08T04:45:34.242Z,934.30
2022-08-08T04:46:34.229Z,934.36
2022-08-08T04:47:36.679Z,934.39
2022-08-08T04:48:34.221Z,934.36
2022-08-08T04:49:58.474Z,934.40
2022-08-08T04:50:38.628Z,934.40
2022-08-08T04:51:55.076Z,934.44
2022-08-08T04:52:35.333Z,934.43
2022-08-08T04:54:36.586Z,934.46
2022-08-08T04:54:39.510Z,934.47
2022-08-08T04:55:47.308Z,934.43
2022-08-08T04:56:34.109Z,934.38
2022-08-08T04:57:34.191Z,934.30
2022-08-08T04:58:34.083Z,934.24
2022-08-08T04:59:41.997Z,934.19
2022-08-08T05:00:34.265Z,934.18
2022-08-08T05:01:35.321Z,934.20
2022-08-08T05:02:34.297Z,934.20
2022-08-08T05:04:09.670Z,934.23
2022-08-08T05:04:34.059Z,934.16
2022-08-08T05:05:45.455Z,934.16
2022-08-08T05:06:33.991Z,934.15
2022-08-08T05:07:37.794Z,934.12
2022-08-08T05:08:33.969Z,934.16
2022-08-08T05:09:36.288Z,934.16
2022-08-08T05:10:34.291Z,934.24
2022-08-08T05:11:39.028Z,934.28
2022-08-08T05:12:36.765Z,934.31
2022-08-08T05:13:33.908Z,934.31
2022-08-08T05:14:33.893Z,934.28
2022-08-08T05:16:52.343Z,934.14
2022-08-08T05:16:54.353Z,934.19
2022-08-08T05:17:37.438Z,934.08
2022-08-08T05:18:33.854Z,934.12
2022-08-08T05:20:12.762Z,934.16
2022-08-08T05:20:36.579Z,934.16
2022-08-08T05:21:43.672Z,934.16
2022-08-08T05:22:34.049Z,934.09
2022-08-08T05:23:41.273Z,934.08
2022-08-08T05:24:33.774Z,933.99
2022-08-08T05:25:41.248Z,933.94
2022-08-08T05:26:33.753Z,933.92
2022-08-08T05:27:33.775Z,933.93
2022-08-08T05:28:56.124Z,933.95
2022-08-08T05:29:36.015Z,933.98
2022-08-08T05:30:33.854Z,934.05
2022-08-08T05:32:03.058Z,934.10
2022-08-08T05:32:36.328Z,934.11
2022-08-08T05:33:48.419Z,934.11
2022-08-08T05:34:33.661Z,934.16
2022-08-08T05:35:33.643Z,934.12
2022-08-08T05:36:33.832Z,934.04
2022-08-08T05:37:49.053Z,933.96
2022-08-08T05:38:33.607Z,933.89
2022-08-08T05:39:35.080Z,933.89
2022-08-08T05:40:33.580Z,933.87
2022-08-08T05:41:33.566Z,933.83
2022-08-08T05:42:34.030Z,933.79
2022-08-08T05:44:02.220Z,933.78
2022-08-08T05:44:33.533Z,933.77
2022-08-08T05:45:43.262Z,933.73
2022-08-08T05:46:33.512Z,933.69
2022-08-08T05:47:41.668Z,933.60
2022-08-08T05:48:34.680Z,933.56
2022-08-08T05:49:33.475Z,933.55
2022-08-08T05:50:33.854Z,933.56
2022-08-08T05:51:48.036Z,933.56
2022-08-08T05:52:35.822Z,933.49
2022-08-08T05:54:24.856Z,933.51
2022-08-08T05:54:50.119Z,933.55
2022-08-08T05:55:34.945Z,933.55
2022-08-08T05:56:33.394Z,933.54
2022-08-08T05:57:59.630Z,933.51
2022-08-08T05:58:33.765Z,933.51
2022-08-08T05:59:59.509Z,933.57
2022-08-08T06:00:34.368Z,933.60
2022-08-08T06:01:51.186Z,933.58
2022-08-08T06:02:33.319Z,933.54
2022-08-08T06:03:33.652Z,933.55
2022-08-08T06:04:33.300Z,933.49
2022-08-08T06:05:36.214Z,933.48
2022-08-08T06:06:35.050Z,933.51
2022-08-08T06:07:33.261Z,933.52
2022-08-08T06:08:35.105Z,933.54
2022-08-08T06:09:58.298Z,933.60
2022-08-08T06:10:33.222Z,933.65
2022-08-08T06:11:33.519Z,933.70
2022-08-08T06:12:33.202Z,933.72
2022-08-08T06:13:36.424Z,933.75
2022-08-08T06:14:33.183Z,933.76
2022-08-08T06:15:50.475Z,933.78
2022-08-08T06:16:33.155Z,933.76
2022-08-08T06:18:18.403Z,933.80
2022-08-08T06:18:33.127Z,933.81
2022-08-08T06:19:33.304Z,933.79
2022-08-08T06:20:33.106Z,933.79
2022-08-08T06:21:51.415Z,933.76
2022-08-08T06:22:33.334Z,933.72
2022-08-08T06:23:53.352Z,933.67
2022-08-08T06:24:35.857Z,933.63
2022-08-08T06:26:38.822Z,933.62
2022-08-08T06:26:44.954Z,933.62
2022-08-08T06:27:33.425Z,933.65
2022-08-08T06:28:33.011Z,933.70
2022-08-08T06:29:56.763Z,933.68
2022-08-08T06:30:32.985Z,933.65
2022-08-08T06:32:08.963Z,933.61
2022-08-08T06:32:33.112Z,933.61
2022-08-08T06:33:36.862Z,933.61
2022-08-08T06:34:32.942Z,933.66
2022-08-08T06:36:04.458Z,933.67
2022-08-08T06:36:32.920Z,933.70
2022-08-08T06:37:37.132Z,933.71
2022-08-08T06:38:32.889Z,933.72
2022-08-08T06:39:34.046Z,933.69
2022-08-08T06:40:36.664Z,933.71
2022-08-08T06:41:33.174Z,933.68
2022-08-08T06:42:33.249Z,933.71
2022-08-08T06:43:34.373Z,933.65
2022-08-08T06:44:32.824Z,933.70
2022-08-08T06:45:32.811Z,933.70
2022-08-08T06:46:32.793Z,933.73
2022-08-08T06:47:33.699Z,933.67
2022-08-08T06:48:32.776Z,933.72
2022-08-08T06:49:55.442Z,933.74
2022-08-08T06:50:33.450Z,933.70
2022-08-08T06:51:46.939Z,933.73
2022-08-08T06:52:32.978Z,933.74
2022-08-08T06:53:39.384Z,933.77
2022-08-08T06:54:32.705Z,933.74
2022-08-08T06:55:37.524Z,933.74
2022-08-08T06:56:32.680Z,933.75
2022-08-08T06:57:54.191Z,933.73
2022-08-08T06:58:33.442Z,933.75
2022-08-08T06:59:34.435Z,933.76
2022-08-08T07:00:32.745Z,933.82
2022-08-08T07:02:17.520Z,933.86
2022-08-08T07:02:32.747Z,933.88
2022-08-08T07:03:51.868Z,933.92
2022-08-08T07:04:37.224Z,933.91
2022-08-08T07:05:40.363Z,933.91
2022-08-08T07:06:32.559Z,933.89
2022-08-08T07:07:32.722Z,933.93
2022-08-08T07:08:32.534Z,933.95
2022-08-08T07:09:45.238Z,933.92
2022-08-08T07:10:32.511Z,933.93
2022-08-08T07:11:51.144Z,933.89
2022-08-08T07:12:32.482Z,933.92
2022-08-08T07:13:32.475Z,933.90
2022-08-08T07:14:32.460Z,933.89
2022-08-08T07:16:03.741Z,933.96
2022-08-08T07:16:32.439Z,933.98
2022-08-08T07:17:56.729Z,933.97
2022-08-08T07:18:35.734Z,933.95
2022-08-08T07:19:32.400Z,933.94
2022-08-08T07:20:32.391Z,933.92
2022-08-08T07:21:32.577Z,933.84
2022-08-08T07:22:32.374Z,933.82
2022-08-08T07:24:01.350Z,933.84
2022-08-08T07:24:32.345Z,933.78
2022-08-08T07:25:32.334Z,933.80
2022-08-08T07:26:35.685Z,933.83
2022-08-08T07:27:46.916Z,933.84
2022-08-08T07:28:32.294Z,933.85
2022-08-08T07:30:00.011Z,933.87
2022-08-08T07:30:32.273Z,933.85
2022-08-08T07:31:35.365Z,933.76
2022-08-08T07:32:32.395Z,933.76
2022-08-08T07:33:38.065Z,933.75
2022-08-08T07:34:32.510Z,933.75
2022-08-08T07:35:35.471Z,933.76
2022-08-08T07:36:32.195Z,933.75
2022-08-08T07:37:55.506Z,933.78
2022-08-08T07:38:32.169Z,933.75
2022-08-08T07:39:45.291Z,933.69
2022-08-08T07:40:32.712Z,933.68
2022-08-08T07:41:58.652Z,933.68
2022-08-08T07:42:32.932Z,933.67
2022-08-08T07:43:37.342Z,933.69
2022-08-08T07:44:37.895Z,933.70
2022-08-08T07:45:34.325Z,933.76
2022-08-08T07:46:32.079Z,933.76
2022-08-08T07:47:39.311Z,933.79
2022-08-08T07:48:32.052Z,933.76
2022-08-08T07:49:32.038Z,933.78
2022-08-08T07:50:32.022Z,933.80
2022-08-08T07:51:45.549Z,933.79
2022-08-08T07:52:31.999Z,933.80
2022-08-08T07:54:01.160Z,933.80
2022-08-08T07:54:31.976Z,933.79
2022-08-08T07:55:36.665Z,933.77
2022-08-08T07:56:35.716Z,933.76
2022-08-08T07:57:35.919Z,933.81
2022-08-08T07:58:32.180Z,933.81
2022-08-08T07:59:37.545Z,933.82
2022-08-08T08:00:31.900Z,933.81
2022-08-08T08:02:34.951Z,933.83
2022-08-08T08:02:37.035Z,933.87
2022-08-08T08:03:43.366Z,933.87
2022-08-08T08:04:31.854Z,933.88
2022-08-08T08:05:33.589Z,933.88
2022-08-08T08:06:31.822Z,933.89
2022-08-08T08:07:37.783Z,933.89
2022-08-08T08:08:31.947Z,933.90
2022-08-08T08:09:33.154Z,933.92
2022-08-08T08:10:33.406Z,933.91
2022-08-08T08:11:33.662Z,933.94
2022-08-08T08:12:43.356Z,933.96
2022-08-08T08:13:43.185Z,934.01
2022-08-08T08:14:31.730Z,933.99
2022-08-08T08:15:32.045Z,934.07
2022-08-08T08:16:32.154Z,934.08
2022-08-08T08:17:44.133Z,934.08
2022-08-08T08:18:32.809Z,934.05
2022-08-08T08:19:32.081Z,934.03
2022-08-08T08:20:31.654Z,934.07
2022-08-08T08:21:35.484Z,934.09
2022-08-08T08:22:33.855Z,934.09
2022-08-08T08:23:41.128Z,934.13
2022-08-08T08:24:35.197Z,934.18
2022-08-08T08:25:42.874Z,934.15
2022-08-08T08:26:31.579Z,934.17
2022-08-08T08:27:31.605Z,934.19
2022-08-08T08:28:31.550Z,934.19
2022-08-08T08:29:31.559Z,934.16
2022-08-08T08:30:31.595Z,934.16
2022-08-08T08:31:41.434Z,934.14
2022-08-08T08:32:36.705Z,934.16
2022-08-08T08:33:31.505Z,934.16
2022-08-08T08:34:31.751Z,934.17
2022-08-08T08:36:19.691Z,934.18
2022-08-08T08:36:31.451Z,934.17
2022-08-08T08:37:31.712Z,934.14
2022-08-08T08:38:31.631Z,934.12
2022-08-08T08:39:31.415Z,934.14
2022-08-08T08:40:31.431Z,934.16
2022-08-08T08:41:31.394Z,934.15
2022-08-08T08:42:36.247Z,934.12
2022-08-08T08:43:31.375Z,934.14
2022-08-08T08:44:31.353Z,934.10
2022-08-08T08:45:31.343Z,934.08
2022-08-08T08:46:31.329Z,934.11
2022-08-08T08:47:43.921Z,934.15
2022-08-08T08:48:31.315Z,934.20
2022-08-08T08:49:34.027Z,934.23
2022-08-08T08:50:33.440Z,934.26
2022-08-08T08:51:31.267Z,934.28
2022-08-08T08:52:31.400Z,934.30
2022-08-08T08:53:54.576Z,934.30
2022-08-08T08:54:32.535Z,934.35
2022-08-08T08:55:31.216Z,934.37
2022-08-08T08:56:31.205Z,934.39
2022-08-08T08:57:31.388Z,934.39
2022-08-08T08:58:31.182Z,934.40
2022-08-08T08:59:59.817Z,934.40
2022-08-08T09:00:49.843Z,934.44
2022-08-08T09:01:32.160Z,934.42
2022-08-08T09:02:31.179Z,934.44
2022-08-08T09:03:31.514Z,934.46
2022-08-08T09:04:38.589Z,934.46
2022-08-08T09:05:54.211Z,934.50
2022-08-08T09:06:34.209Z,934.55
2022-08-08T09:07:39.668Z,934.56
2022-08-08T09:08:31.050Z,934.61
2022-08-08T09:09:39.584Z,934.65
2022-08-08T09:10:31.051Z,934.68
2022-08-08T09:11:33.156Z,934.65
2022-08-08T09:12:31.206Z,934.65
2022-08-08T09:13:30.992Z,934.66
2022-08-08T09:14:30.982Z,934.61
2022-08-08T09:15:41.352Z,934.57
2022-08-08T09:16:32.662Z,934.56
2022-08-08T09:17:40.749Z,934.57
2022-08-08T09:18:30.929Z,934.57
2022-08-08T09:21:56.000Z,934.50
2022-08-08T09:21:56.925Z,934.52
2022-08-08T09:22:00.135Z,934.55
2022-08-08T09:22:30.979Z,934.57
2022-08-08T09:23:33.697Z,934.56
2022-08-08T09:24:30.851Z,934.54
2022-08-08T09:25:35.956Z,934.52
2022-08-08T09:26:32.545Z,934.50
2022-08-08T09:27:57.032Z,934.52
2022-08-08T09:28:30.827Z,934.54
2022-08-08T09:29:30.788Z,934.53
2022-08-08T09:30:30.781Z,934.54
2022-08-08T09:31:42.119Z,934.56
2022-08-08T09:32:31.240Z,934.59
2022-08-08T09:34:15.066Z,934.56
2022-08-08T09:34:34.562Z,934.57
2022-08-08T09:35:32.053Z,934.57
2022-08-08T09:36:30.705Z,934.60
2022-08-08T09:37:58.770Z,934.61
2022-08-08T09:38:32.139Z,934.58
2022-08-08T09:39:32.757Z,934.66
2022-08-08T09:40:44.089Z,934.69
2022-08-08T09:41:33.400Z,934.69
2022-08-08T09:42:30.629Z,934.68
2022-08-08T09:44:05.201Z,934.73
2022-08-08T09:44:34.181Z,934.71
2022-08-08T09:46:01.246Z,934.71
2022-08-08T09:46:31.329Z,934.72
2022-08-08T09:48:09.539Z,934.72
2022-08-08T09:48:35.698Z,934.71
2022-08-08T09:49:42.386Z,934.73
2022-08-08T09:50:32.502Z,934.78
2022-08-08T09:51:30.517Z,934.79
2022-08-08T09:52:56.146Z,934.80
2022-08-08T09:53:52.859Z,934.77
2022-08-08T09:54:36.676Z,934.77
2022-08-08T09:55:51.528Z,934.77
2022-08-08T09:56:30.451Z,934.78
2022-08-08T09:57:30.602Z,934.84
2022-08-08T09:58:40.227Z,934.83
2022-08-08T10:00:01.729Z,934.86
2022-08-08T10:00:53.212Z,934.86
2022-08-08T10:01:59.897Z,934.90
2022-08-08T10:02:30.490Z,934.90
2022-08-08T10:03:31.599Z,934.90
2022-08-08T10:04:38.315Z,934.87
2022-08-08T10:05:31.307Z,934.81
2022-08-08T10:06:30.379Z,934.78
2022-08-08T10:07:30.501Z,934.76
2022-08-08T10:08:30.828Z,934.74
2022-08-08T10:09:30.289Z,934.68
2022-08-08T10:10:31.841Z,934.68
2022-08-08T10:12:26.968Z,934.65
2022-08-08T10:12:37.656Z,934.65
2022-08-08T10:13:35.410Z,934.69
2022-08-08T10:14:38.490Z,934.65
2022-08-08T10:15:30.226Z,934.65
2022-08-08T10:16:30.201Z,934.63
2022-08-08T10:17:57.478Z,934.61
2022-08-08T10:18:30.194Z,934.57
2022-08-08T10:19:30.173Z,934.50
2022-08-08T10:20:40.547Z,934.50
2022-08-08T10:21:33.235Z,934.41
2022-08-08T10:22:32.005Z,934.35
2022-08-08T10:23:41.173Z,934.33
2022-08-08T10:24:34.877Z,934.28
2022-08-08T10:25:36.191Z,934.32
2022-08-08T10:26:52.085Z,934.31
2022-08-08T10:27:34.181Z,934.38
2022-08-08T10:28:30.059Z,934.38
2022-08-08T10:29:36.519Z,934.33
2022-08-08T10:30:57.510Z,934.12
2022-08-08T10:31:46.659Z,933.96
2022-08-08T10:32:30.266Z,933.97
2022-08-08T10:33:38.252Z,934.20
2022-08-08T10:34:29.979Z,934.46
2022-08-08T10:36:08.923Z,934.70
2022-08-08T10:36:31.033Z,934.89
2022-08-08T10:37:30.383Z,934.94
2022-08-08T10:38:29.933Z,934.96
2022-08-08T10:39:31.426Z,935.02
2022-08-08T10:40:30.865Z,935.13
2022-08-08T10:41:35.687Z,935.26
2022-08-08T10:42:30.404Z,935.28
2022-08-08T10:43:32.115Z,935.41
2022-08-08T10:44:29.852Z,935.42
2022-08-08T10:45:29.845Z,935.45
2022-08-08T10:46:30.689Z,935.42
2022-08-08T10:47:30.541Z,935.38
2022-08-08T10:48:29.805Z,935.33
2022-08-08T10:50:01.266Z,935.30
2022-08-08T10:50:30.616Z,935.25
2022-08-08T10:51:30.774Z,935.22
2022-08-08T10:52:31.214Z,935.21
2022-08-08T10:53:56.583Z,935.26
2022-08-08T10:54:29.732Z,935.24
2022-08-08T10:55:41.004Z,935.20
2022-08-08T10:56:32.289Z,935.16
2022-08-08T10:57:45.395Z,935.27
2022-08-08T10:58:29.783Z,935.31
2022-08-08T10:59:31.016Z,935.36
2022-08-08T11:00:29.661Z,935.36
2022-08-08T11:01:29.684Z,935.30
2022-08-08T11:02:29.875Z,935.25
2022-08-08T11:03:36.822Z,935.21
2022-08-08T11:04:38.954Z,935.22
2022-08-08T11:05:38.631Z,935.16
2022-08-08T11:06:29.581Z,935.23
2022-08-08T11:07:39.045Z,935.23
2022-08-08T11:08:30.806Z,935.28
2022-08-08T11:09:32.225Z,935.29
2022-08-08T11:10:29.905Z,935.28
2022-08-08T11:11:59.882Z,935.21
2022-08-08T11:12:29.714Z,935.19
2022-08-08T11:13:30.439Z,935.13
2022-08-08T11:14:29.490Z,935.14
2022-08-08T11:15:30.772Z,935.10
2022-08-08T11:16:33.028Z,935.02
2022-08-08T11:18:00.636Z,934.95
2022-08-08T11:18:30.002Z,934.88
2022-08-08T11:19:29.431Z,934.89
2022-08-08T11:20:29.416Z,934.85
2022-08-08T11:21:35.223Z,934.71
2022-08-08T11:22:29.684Z,934.64
2022-08-08T11:23:31.478Z,934.60
2022-08-08T11:24:29.380Z,934.62
2022-08-08T11:25:51.706Z,934.68
2022-08-08T11:26:29.341Z,934.84
2022-08-08T11:27:29.421Z,934.99
2022-08-08T11:28:30.486Z,935.13
2022-08-08T11:29:41.510Z,935.18
2022-08-08T11:30:31.784Z,935.22
2022-08-08T11:31:30.075Z,935.32
2022-08-08T11:32:30.574Z,935.48
2022-08-08T11:33:51.289Z,935.57
2022-08-08T11:34:31.738Z,935.65
2022-08-08T11:35:38.440Z,935.73
2022-08-08T11:36:29.558Z,935.71
2022-08-08T11:38:35.566Z,935.74
2022-08-08T11:38:36.036Z,935.71
2022-08-08T11:39:36.964Z,935.74
2022-08-08T11:40:31.574Z,935.75
2022-08-08T11:41:33.517Z,935.78
2022-08-08T11:42:31.027Z,935.77
2022-08-08T11:43:38.814Z,935.70
2022-08-08T11:44:29.361Z,935.60
2022-08-08T11:45:29.740Z,935.57
2022-08-08T11:46:31.382Z,935.60
2022-08-08T11:47:39.871Z,935.57
2022-08-08T11:48:29.081Z,935.49
2022-08-08T11:49:29.066Z,935.46
2022-08-08T11:50:29.787Z,935.37
2022-08-08T11:51:39.137Z,935.35
2022-08-08T11:52:31.874Z,935.36
2022-08-08T11:53:29.017Z,935.34
2022-08-08T11:54:31.665Z,935.33
2022-08-08T11:55:28.996Z,935.32
2022-08-08T11:56:28.983Z,935.30
2022-08-08T11:57:30.266Z,935.32
2022-08-08T11:58:28.956Z,935.38
2022-08-08T11:59:58.655Z,935.43
2022-08-08T12:00:28.936Z,935.47
2022-08-08T12:01:28.928Z,935.52
2022-08-08T12:02:32.669Z,935.55
2022-08-08T12:03:30.646Z,935.61
2022-08-08T12:04:28.890Z,935.66
2022-08-08T12:05:28.872Z,935.69
2022-08-08T12:06:28.866Z,935.66
2022-08-08T12:07:28.899Z,935.64
2022-08-08T12:08:28.838Z,935.64
2022-08-08T12:09:28.824Z,935.66
2022-08-08T12:10:28.811Z,935.64
2022-08-08T12:11:29.305Z,935.64
2022-08-08T12:12:29.150Z,935.69
2022-08-08T12:13:33.313Z,935.77
2022-08-08T12:14:29.002Z,935.91
2022-08-08T12:15:28.755Z,936.00
2022-08-08T12:16:33.582Z,935.98
2022-08-08T12:17:28.833Z,936.00
2022-08-08T12:18:28.794Z,936.00
2022-08-08T12:19:37.995Z,935.96
2022-08-08T12:20:28.700Z,935.95
2022-08-08T12:21:59.218Z,935.99
2022-08-08T12:22:35.719Z,936.03
2022-08-08T12:23:39.909Z,936.07
2022-08-08T12:24:28.651Z,936.08
2022-08-08T12:25:30.071Z,936.08
2022-08-08T12:26:35.962Z,936.03
2022-08-08T12:27:35.648Z,936.01